Time;durP1;ratioP1;P1;durP2;ratioP2;P2;SDS_P1;SDS_P2;PMS_P1;PMS_P2;Temp;Humidity;BMP_temperature;BMP_pressure;BME280_temperature;BME280_humidity;BME280_pressure;Samples;Min_cycle;Max_cycle;Signal;HPM_P1;HPM_P2
2023/09/21 00:00:23;;;;;;;;;;;;;;;20.63;94.22;99862.69;5300124;28;19924;-72
2023/09/21 00:02:57;;;;;;;;;;;;;;;20.64;94.40;99866.97;5298566;28;19979;-72
2023/09/21 00:05:31;;;;;;;;;;;;;;;20.63;94.13;99876.78;5303092;28;19965;-72
2023/09/21 00:08:03;;;;;;;;;;;;;;;20.62;94.59;99866.38;5300070;28;19919;-72
2023/09/21 00:10:34;;;;;;;;;;;;;;;20.61;94.09;99865.56;5303061;28;19920;-72
2023/09/21 00:13:06;;;;;;;;;;;;;;;20.61;94.10;99870.09;5302206;28;19994;-72
2023/09/21 00:15:38;;;;;;;;;;;;;;;20.60;93.97;99869.25;5302563;28;19920;-72
2023/09/21 00:18:09;;;;;;;;;;;;;;;20.61;94.36;99868.22;5304661;28;19920;-72
2023/09/21 00:20:48;;;;;;;;;;;;;;;20.60;94.39;99863.13;5301333;28;19943;-72
2023/09/21 00:23:24;;;;;;;;;;;;;;;20.59;94.31;99851.66;5301642;28;19941;-72
2023/09/21 00:26:00;;;;;;;;;;;;;;;20.58;93.77;99839.41;5282102;28;21296;-72
2023/09/21 00:28:31;;;;;;;;;;;;;;;20.60;93.91;99841.81;5301807;28;19927;-72
2023/09/21 00:31:02;;;;;;;;;;;;;;;20.59;93.72;99843.69;5302867;28;20297;-72
2023/09/21 00:33:33;;;;;;;;;;;;;;;20.61;93.66;99838.97;5306731;28;19919;-72
2023/09/21 00:36:05;;;;;;;;;;;;;;;20.60;93.68;99829.31;5285497;28;20376;-72
2023/09/21 00:38:37;;;;;;;;;;;;;;;20.60;93.58;99828.50;5299924;28;19920;-72
2023/09/21 00:41:09;;;;;;;;;;;;;;;20.60;93.68;99824.00;5303122;28;20011;-72
2023/09/21 00:43:41;;;;;;;;;;;;;;;20.62;93.26;99821.16;5303243;28;20391;-72
2023/09/21 00:46:12;;;;;;;;;;;;;;;20.62;93.21;99821.16;5303190;28;20003;-72
2023/09/21 00:48:43;;;;;;;;;;;;;;;20.62;93.59;99819.28;5297967;28;20630;-72
2023/09/21 00:51:16;;;;;;;;;;;;;;;20.63;93.58;99814.78;5300969;28;20292;-72
2023/09/21 00:53:47;;;;;;;;;;;;;;;20.64;93.45;99819.06;5299163;28;19919;-72
2023/09/21 00:56:18;;;;;;;;;;;;;;;20.67;92.82;99807.16;5304776;28;19923;-72
2023/09/21 00:58:53;;;;;;;;;;;;;;;20.67;92.40;99804.50;5298906;28;20329;-72
2023/09/21 01:01:27;;;;;;;;;;;;;;;20.69;91.99;99786.47;5301215;28;20385;-72
2023/09/21 01:03:59;;;;;;;;;;;;;;;20.73;91.58;99792.97;5295704;28;19920;-72
2023/09/21 01:06:30;;;;;;;;;;;;;;;20.74;90.86;99784.75;5295794;22;20281;-75
2023/09/21 01:09:03;;;;;;;;;;;;;;;20.78;90.33;99793.13;5274077;28;19926;-73
2023/09/21 01:11:37;;;;;;;;;;;;;;;20.80;89.55;99785.75;5279744;28;19920;-74
2023/09/21 01:14:08;;;;;;;;;;;;;;;20.82;89.21;99781.78;5276559;28;19917;-75
2023/09/21 01:16:40;;;;;;;;;;;;;;;20.84;89.02;99785.06;5256195;28;21170;-73
2023/09/21 01:19:11;;;;;;;;;;;;;;;20.85;88.89;99778.69;5279681;28;20284;-74
2023/09/21 01:21:46;;;;;;;;;;;;;;;20.89;87.81;99771.06;5279193;28;19920;-74
2023/09/21 01:24:22;;;;;;;;;;;;;;;20.93;87.55;99771.44;5280028;28;20282;-74
2023/09/21 01:26:53;;;;;;;;;;;;;;;20.95;87.37;99772.84;5280624;28;20518;-74
2023/09/21 01:29:24;;;;;;;;;;;;;;;21.00;87.07;99764.19;5277514;28;19916;-73
2023/09/21 01:31:56;;;;;;;;;;;;;;;20.99;86.86;99760.72;5277843;28;20382;-74
2023/09/21 01:34:27;;;;;;;;;;;;;;;20.99;86.42;99752.72;5278777;28;20381;-74
2023/09/21 01:36:59;;;;;;;;;;;;;;;20.99;86.76;99754.59;5278590;28;20011;-74
2023/09/21 01:39:30;;;;;;;;;;;;;;;21.04;86.31;99747.53;5278801;28;19923;-73
2023/09/21 01:42:01;;;;;;;;;;;;;;;21.03;85.78;99748.56;5276955;28;20007;-73
2023/09/21 01:44:32;;;;;;;;;;;;;;;21.04;84.74;99746.72;5275332;28;19921;-73
2023/09/21 01:47:04;;;;;;;;;;;;;;;21.08;85.08;99743.38;5277076;28;20342;-74
2023/09/21 01:49:35;;;;;;;;;;;;;;;21.09;85.26;99745.00;5276543;28;19920;-74
2023/09/21 01:52:06;;;;;;;;;;;;;;;21.11;84.43;99742.13;5277470;28;19922;-74
2023/09/21 01:54:38;;;;;;;;;;;;;;;21.09;84.58;99737.00;5275381;28;19920;-73
2023/09/21 01:57:09;;;;;;;;;;;;;;;21.11;83.91;99734.13;5279033;28;19917;-73
2023/09/21 01:59:41;;;;;;;;;;;;;;;21.10;82.94;99730.66;5279968;28;19920;-74
2023/09/21 02:02:13;;;;;;;;;;;;;;;21.11;84.25;99726.13;5279048;28;19927;-73
2023/09/21 02:04:44;;;;;;;;;;;;;;;21.13;84.10;99734.69;5277021;28;19924;-73
2023/09/21 02:07:16;;;;;;;;;;;;;;;21.12;82.47;99733.09;5277923;28;20419;-74
2023/09/21 02:09:47;;;;;;;;;;;;;;;21.14;83.31;99731.03;5279902;28;20262;-73
2023/09/21 02:12:18;;;;;;;;;;;;;;;21.13;82.91;99730.19;5279331;28;19940;-74
2023/09/21 02:14:49;;;;;;;;;;;;;;;21.12;83.55;99720.56;5277942;28;19928;-74
2023/09/21 02:17:24;;;;;;;;;;;;;;;21.12;82.19;99723.25;5259430;28;19917;-74
2023/09/21 02:19:55;;;;;;;;;;;;;;;21.12;82.99;99720.56;5276617;28;20402;-74
2023/09/21 02:22:26;;;;;;;;;;;;;;;21.13;83.37;99714.19;5277006;28;20050;-74
2023/09/21 02:24:57;;;;;;;;;;;;;;;21.12;82.23;99714.44;5277319;28;19924;-73
2023/09/21 02:27:28;;;;;;;;;;;;;;;21.11;81.98;99718.97;5276322;28;19921;-74
2023/09/21 02:30:00;;;;;;;;;;;;;;;21.11;82.61;99710.97;5277062;28;20464;-74
2023/09/21 02:32:33;;;;;;;;;;;;;;;21.07;82.78;99709.81;5278549;28;19917;-73
2023/09/21 02:35:07;;;;;;;;;;;;;;;21.09;82.49;99713.03;5277023;28;19916;-74
2023/09/21 02:37:41;;;;;;;;;;;;;;;21.10;82.35;99706.69;5277350;28;20453;-74
2023/09/21 02:40:14;;;;;;;;;;;;;;;21.08;82.51;99707.94;5277249;28;19917;-74
2023/09/21 02:42:47;;;;;;;;;;;;;;;21.09;82.45;99707.69;5274808;28;19917;-74
2023/09/21 02:45:20;;;;;;;;;;;;;;;21.08;82.57;99702.63;5276580;28;20396;-74
2023/09/21 02:47:54;;;;;;;;;;;;;;;21.10;82.64;99703.19;5278030;28;19928;-74
2023/09/21 02:50:27;;;;;;;;;;;;;;;21.09;82.43;99699.72;5277656;28;20257;-74
2023/09/21 02:53:06;;;;;;;;;;;;;;;21.10;82.39;99703.19;5277221;28;19916;-74
2023/09/21 02:55:38;;;;;;;;;;;;;;;21.09;82.50;99701.56;5277532;28;19932;-73
2023/09/21 02:58:10;;;;;;;;;;;;;;;21.08;82.76;99700.75;5275645;28;19952;-74
2023/09/21 03:00:43;;;;;;;;;;;;;;;21.06;82.77;99696.69;5277384;28;19916;-74
2023/09/21 03:03:15;;;;;;;;;;;;;;;21.07;83.01;99695.69;5277846;28;20343;-74
2023/09/21 03:05:47;;;;;;;;;;;;;;;21.06;82.80;99688.69;5277699;28;19921;-74
2023/09/21 03:08:18;;;;;;;;;;;;;;;21.05;82.79;99684.44;5276347;28;20296;-74
2023/09/21 03:10:50;;;;;;;;;;;;;;;21.04;82.82;99688.94;5275264;28;19917;-74
2023/09/21 03:13:21;;;;;;;;;;;;;;;21.03;82.40;99687.31;5255229;28;19958;-73
2023/09/21 03:15:54;;;;;;;;;;;;;;;21.03;82.84;99687.31;5276279;28;19916;-74
2023/09/21 03:18:25;;;;;;;;;;;;;;;21.05;83.07;99689.75;5275612;28;20270;-74
2023/09/21 03:20:56;;;;;;;;;;;;;;;21.03;83.08;99683.84;5277312;28;19924;-74
2023/09/21 03:23:27;;;;;;;;;;;;;;;21.06;83.32;99676.22;5277341;28;19921;-73
2023/09/21 03:25:59;;;;;;;;;;;;;;;21.05;83.16;99681.75;5276355;28;20657;-74
2023/09/21 03:28:31;;;;;;;;;;;;;;;21.06;83.49;99675.38;5276139;28;19958;-74
2023/09/21 03:31:02;;;;;;;;;;;;;;;21.05;83.12;99677.25;5275892;28;19927;-74
2023/09/21 03:33:33;;;;;;;;;;;;;;;21.05;83.02;99673.78;5276478;28;19923;-74
2023/09/21 03:36:05;;;;;;;;;;;;;;;21.05;83.14;99671.09;5277203;28;19920;-74
2023/09/21 03:38:37;;;;;;;;;;;;;;;21.06;83.48;99676.22;5276155;28;19951;-74
2023/09/21 03:41:08;;;;;;;;;;;;;;;21.03;83.11;99673.22;5276155;28;19960;-74
2023/09/21 03:43:40;;;;;;;;;;;;;;;21.02;83.71;99677.69;5275307;28;20408;-74
2023/09/21 03:46:12;;;;;;;;;;;;;;;21.04;83.97;99675.63;5276481;28;19990;-74
2023/09/21 03:48:43;;;;;;;;;;;;;;;21.04;83.71;99667.63;5277361;28;20384;-74
2023/09/21 03:51:14;;;;;;;;;;;;;;;21.06;84.18;99664.72;5274761;28;19967;-74
2023/09/21 03:53:46;;;;;;;;;;;;;;;21.07;84.02;99667.19;5276710;28;19920;-75
2023/09/21 03:56:17;;;;;;;;;;;;;;;21.07;84.26;99661.88;5275144;28;20412;-74
2023/09/21 03:58:48;;;;;;;;;;;;;;;21.06;83.82;99649.59;5274991;28;20558;-74
2023/09/21 04:01:21;;;;;;;;;;;;;;;21.08;84.18;99658.16;5275190;28;19969;-74
2023/09/21 04:03:53;;;;;;;;;;;;;;;21.06;83.42;99648.75;5275536;28;19920;-74
2023/09/21 04:06:24;;;;;;;;;;;;;;;21.09;84.10;99651.78;5275973;28;19970;-74
2023/09/21 04:08:55;;;;;;;;;;;;;;;21.10;84.18;99652.59;5274530;28;19945;-75
2023/09/21 04:11:28;;;;;;;;;;;;;;;21.08;84.07;99652.81;5275443;28;19960;-74
2023/09/21 04:13:59;;;;;;;;;;;;;;;21.11;84.58;99652.38;5276509;28;19920;-74
2023/09/21 04:16:31;;;;;;;;;;;;;;;21.11;84.49;99655.03;5274680;28;19994;-74
2023/09/21 04:19:05;;;;;;;;;;;;;;;21.13;85.52;99658.28;5272978;28;19925;-74
2023/09/21 04:21:37;;;;;;;;;;;;;;;21.10;85.09;99658.75;5276094;28;19924;-75
2023/09/21 04:24:09;;;;;;;;;;;;;;;21.12;85.35;99653.19;5276159;28;20430;-74
2023/09/21 04:26:41;;;;;;;;;;;;;;;21.10;85.53;99650.75;5276396;28;19921;-74
2023/09/21 04:29:12;;;;;;;;;;;;;;;21.11;85.37;99652.38;5276340;28;19920;-74
2023/09/21 04:31:43;;;;;;;;;;;;;;;21.11;85.27;99652.38;5275931;28;20376;-75
2023/09/21 04:34:14;;;;;;;;;;;;;;;21.12;85.36;99651.34;5274681;28;19963;-74
2023/09/21 04:36:47;;;;;;;;;;;;;;;21.12;85.30;99646.00;5273835;28;19966;-74
2023/09/21 04:39:19;;;;;;;;;;;;;;;21.16;85.41;99642.88;5276190;28;20173;-74
2023/09/21 04:41:50;;;;;;;;;;;;;;;21.16;85.76;99635.69;5273914;28;20389;-74
2023/09/21 04:44:22;;;;;;;;;;;;;;;21.15;85.68;99647.41;5275504;28;19986;-73
2023/09/21 04:46:53;;;;;;;;;;;;;;;21.17;86.07;99634.66;5274605;28;19924;-75
2023/09/21 04:49:24;;;;;;;;;;;;;;;21.16;86.47;99643.69;5276386;28;19913;-74
2023/09/21 04:51:56;;;;;;;;;;;;;;;21.19;86.95;99645.09;5256181;28;20003;-74
2023/09/21 04:54:27;;;;;;;;;;;;;;;21.14;88.04;99627.16;5275146;28;19928;-74
2023/09/21 04:56:58;;;;;;;;;;;;;;;21.16;88.19;99640.22;5275610;28;19928;-74
2023/09/21 04:59:29;;;;;;;;;;;;;;;21.17;88.36;99645.31;5275525;28;19955;-74
2023/09/21 05:02:01;;;;;;;;;;;;;;;21.18;89.22;99628.31;5273334;28;19959;-75
2023/09/21 05:04:32;;;;;;;;;;;;;;;21.14;89.74;99638.59;5275575;28;19959;-74
2023/09/21 05:07:05;;;;;;;;;;;;;;;21.15;90.92;99642.09;5274229;28;20003;-74
2023/09/21 05:09:36;;;;;;;;;;;;;;;21.13;90.62;99631.63;5275124;28;19927;-74
2023/09/21 05:12:07;;;;;;;;;;;;;;;21.11;91.06;99620.41;5273092;28;20306;-74
2023/09/21 05:14:39;;;;;;;;;;;;;;;21.04;90.69;99618.91;5258592;28;19921;-75
2023/09/21 05:17:11;;;;;;;;;;;;;;;21.07;90.84;99621.91;5272714;28;19939;-74
2023/09/21 05:19:43;;;;;;;;;;;;;;;21.09;91.39;99621.69;5266896;28;19930;-74
2023/09/21 05:22:15;;;;;;;;;;;;;;;21.09;90.59;99619.81;5274340;28;20388;-74
2023/09/21 05:24:46;;;;;;;;;;;;;;;21.10;90.05;99620.63;5272449;28;19920;-74
2023/09/21 05:27:17;;;;;;;;;;;;;;;21.12;89.75;99621.22;5273600;28;19934;-74
2023/09/21 05:29:49;;;;;;;;;;;;;;;21.17;89.65;99612.53;5273396;28;19920;-74
2023/09/21 05:32:20;;;;;;;;;;;;;;;21.17;90.90;99623.19;5272016;28;19975;-74
2023/09/21 05:34:51;;;;;;;;;;;;;;;21.19;90.20;99615.81;5272518;28;19924;-74
2023/09/21 05:37:22;;;;;;;;;;;;;;;21.21;90.54;99616.38;5252662;28;20317;-75
2023/09/21 05:39:53;;;;;;;;;;;;;;;21.24;90.34;99618.56;5272729;28;20287;-74
2023/09/21 05:42:25;;;;;;;;;;;;;;;21.23;90.89;99622.28;5273495;28;19916;-75
2023/09/21 05:44:56;;;;;;;;;;;;;;;21.26;90.74;99617.31;5275537;28;19916;-74
2023/09/21 05:47:27;;;;;;;;;;;;;;;21.29;90.91;99606.22;5270131;28;20468;-75
2023/09/21 05:49:58;;;;;;;;;;;;;;;21.34;90.76;99616.19;5272453;28;20027;-75
2023/09/21 05:52:32;;;;;;;;;;;;;;;21.34;91.66;99610.88;5275110;28;19916;-74
2023/09/21 05:55:03;;;;;;;;;;;;;;;21.36;92.41;99614.09;5277031;28;19928;-74
2023/09/21 05:57:34;;;;;;;;;;;;;;;21.40;91.24;99622.44;5278252;28;19917;-74
2023/09/21 06:00:08;;;;;;;;;;;;;;;21.38;93.50;99614.69;5278374;28;20396;-74
2023/09/21 06:02:39;;;;;;;;;;;;;;;21.37;94.06;99615.75;5277289;28;20006;-73
2023/09/21 06:05:10;;;;;;;;;;;;;;;21.33;94.58;99618.06;5277104;28;20277;-74
2023/09/21 06:07:41;;;;;;;;;;;;;;;21.28;97.49;99625.06;5279026;28;19916;-75
2023/09/21 06:10:13;;;;;;;;;;;;;;;21.26;99.15;99625.31;5277255;28;19937;-73
2023/09/21 06:12:44;;;;;;;;;;;;;;;21.11;100.00;99628.41;5275766;28;19920;-75
2023/09/21 06:15:15;;;;;;;;;;;;;;;21.05;100.00;99626.66;5275940;28;19924;-75
2023/09/21 06:17:46;;;;;;;;;;;;;;;20.98;100.00;99635.78;5273443;28;20476;-75
2023/09/21 06:20:19;;;;;;;;;;;;;;;20.95;100.00;99638.88;5273767;28;19975;-75
2023/09/21 06:22:50;;;;;;;;;;;;;;;20.90;100.00;99636.91;5274303;28;19930;-75
2023/09/21 06:25:21;;;;;;;;;;;;;;;20.83;100.00;99636.19;5255175;28;19921;-74
2023/09/21 06:27:53;;;;;;;;;;;;;;;20.77;100.00;99635.25;5272959;28;19962;-75
2023/09/21 06:30:24;;;;;;;;;;;;;;;20.69;100.00;99626.78;5276208;28;20281;-75
2023/09/21 06:32:55;;;;;;;;;;;;;;;20.67;100.00;99634.19;5276522;28;19926;-75
2023/09/21 06:35:27;;;;;;;;;;;;;;;20.68;100.00;99638.44;5277546;28;20660;-75
2023/09/21 06:37:59;;;;;;;;;;;;;;;20.66;100.00;99636.03;5278097;28;19927;-75
2023/09/21 06:40:33;;;;;;;;;;;;;;;20.63;100.00;99633.81;5279816;28;19955;-75
2023/09/21 06:43:05;;;;;;;;;;;;;;;20.59;100.00;99636.09;5279996;28;19916;-75
2023/09/21 06:45:37;;;;;;;;;;;;;;;20.57;100.00;99637.34;5278366;28;19921;-75
2023/09/21 06:48:11;;;;;;;;;;;;;;;20.53;100.00;99644.16;5274861;28;19947;-75
2023/09/21 06:50:42;;;;;;;;;;;;;;;20.48;100.00;99649.34;5276695;28;19943;-76
2023/09/21 06:53:14;;;;;;;;;;;;;;;20.44;100.00;99653.47;5252650;28;19928;-75
2023/09/21 06:55:45;;;;;;;;;;;;;;;20.42;100.00;99659.84;5276907;28;19920;-76
2023/09/21 06:58:17;;;;;;;;;;;;;;;20.36;100.00;99665.22;5276063;28;19927;-76
2023/09/21 07:00:48;;;;;;;;;;;;;;;20.28;100.00;99660.22;5276976;28;19920;-76
2023/09/21 07:03:19;;;;;;;;;;;;;;;20.22;100.00;99663.75;5276172;28;20011;-75
2023/09/21 07:05:51;;;;;;;;;;;;;;;20.14;100.00;99663.00;5273826;28;19928;-76
2023/09/21 07:08:22;;;;;;;;;;;;;;;20.12;100.00;99659.78;5276127;28;19939;-76
2023/09/21 07:10:53;;;;;;;;;;;;;;;20.08;100.00;99655.94;5275315;28;19916;-76
2023/09/21 07:13:24;;;;;;;;;;;;;;;20.07;100.00;99651.63;5276462;28;20011;-75
2023/09/21 07:15:56;;;;;;;;;;;;;;;20.03;100.00;99641.66;5277419;28;19917;-73
2023/09/21 07:21:05;;;;;;;;;;;;;;;20.03;100.00;99637.16;5309700;28;19924;-73
2023/09/21 07:23:36;;;;;;;;;;;;;;;20.05;100.00;99643.09;5311019;28;20271;-72
2023/09/21 07:26:08;;;;;;;;;;;;;;;20.09;100.00;99635.47;5312268;28;19990;-72
2023/09/21 07:28:39;;;;;;;;;;;;;;;20.08;100.00;99639.19;5300205;28;20399;-72
2023/09/21 07:31:10;;;;;;;;;;;;;;;20.08;100.00;99645.31;5306845;22;20131;-77
2023/09/21 07:33:41;;;;;;;;;;;;;;;20.08;100.00;99649.81;5288152;28;19930;-74
2023/09/21 07:36:14;;;;;;;;;;;;;;;20.07;100.00;99646.31;5294117;28;19920;-74
2023/09/21 07:38:45;;;;;;;;;;;;;;;20.08;100.00;99642.66;5291919;28;19920;-78
2023/09/21 07:41:16;;;;;;;;;;;;;;;20.07;100.00;99646.31;5293280;28;19927;-75
2023/09/21 07:43:50;;;;;;;;;;;;;;;20.03;100.00;99652.31;5295659;28;19951;-75
2023/09/21 07:46:21;;;;;;;;;;;;;;;20.04;100.00;99656.56;5275041;28;19985;-77
2023/09/21 07:48:53;;;;;;;;;;;;;;;20.05;100.00;99652.91;5271276;28;19920;-75
2023/09/21 07:51:26;;;;;;;;;;;;;;;20.02;100.00;99656.00;5293638;28;19916;-75
2023/09/21 07:53:57;;;;;;;;;;;;;;;20.01;100.00;99657.03;5270148;28;19924;-74
2023/09/21 07:56:32;;;;;;;;;;;;;;;20.02;100.00;99663.97;5297230;28;19916;-76
2023/09/21 07:59:09;;;;;;;;;;;;;;;20.04;100.00;99653.91;5296684;28;20288;-75
2023/09/21 08:01:41;;;;;;;;;;;;;;;20.05;100.00;99667.00;5298344;28;19974;-75
2023/09/21 08:04:12;;;;;;;;;;;;;;;20.05;100.00;99669.66;5296544;28;20052;-74
2023/09/21 08:06:43;;;;;;;;;;;;;;;20.04;100.00;99680.50;5294324;28;20372;-77
2023/09/21 08:09:14;;;;;;;;;;;;;;;20.03;100.00;99677.03;5297459;28;20326;-75
2023/09/21 08:11:45;;;;;;;;;;;;;;;20.04;100.00;99685.81;5297859;28;19916;-75
2023/09/21 08:14:17;;;;;;;;;;;;;;;20.03;100.00;99685.03;5279172;28;19916;-75
2023/09/21 08:16:48;;;;;;;;;;;;;;;19.97;100.00;99685.91;5293149;28;19954;-74
2023/09/21 08:19:20;;;;;;;;;;;;;;;19.94;100.00;99675.72;5294982;28;20257;-75
2023/09/21 08:21:51;;;;;;;;;;;;;;;19.92;100.00;99691.88;5266336;28;19912;-75
2023/09/21 08:24:22;;;;;;;;;;;;;;;19.90;100.00;99695.78;5277772;28;19973;-74
2023/09/21 08:26:53;;;;;;;;;;;;;;;19.88;100.00;99700.50;5296993;28;20337;-77
2023/09/21 08:29:24;;;;;;;;;;;;;;;19.86;100.00;99711.38;5297653;28;19973;-74
2023/09/21 08:31:56;;;;;;;;;;;;;;;19.85;100.00;99720.38;5295297;28;19924;-74
2023/09/21 08:34:27;;;;;;;;;;;;;;;19.82;100.00;99715.50;5293090;28;20022;-75
2023/09/21 08:36:58;;;;;;;;;;;;;;;19.79;100.00;99718.59;5293514;28;20423;-74
2023/09/21 08:39:29;;;;;;;;;;;;;;;19.79;100.00;99731.06;5294375;28;19926;-76
2023/09/21 08:42:03;;;;;;;;;;;;;;;19.76;100.00;99728.84;5295038;28;20087;-75
2023/09/21 08:44:35;;;;;;;;;;;;;;;19.71;100.00;99741.97;5294808;28;19970;-76
2023/09/21 08:47:11;;;;;;;;;;;;;;;19.65;100.00;99739.13;5297478;28;19959;-78
2023/09/21 08:49:45;;;;;;;;;;;;;;;19.64;100.00;99736.69;5295140;28;20316;-74
2023/09/21 08:52:18;;;;;;;;;;;;;;;19.62;100.00;99744.91;5295740;28;20200;-74
2023/09/21 08:54:50;;;;;;;;;;;;;;;19.61;100.00;99748.53;5297929;28;19912;-78
2023/09/21 08:57:21;;;;;;;;;;;;;;;19.62;100.00;99744.91;5296209;28;19956;-75
2023/09/21 08:59:54;;;;;;;;;;;;;;;19.65;100.00;99740.97;5295106;28;19958;-77
2023/09/21 09:02:26;;;;;;;;;;;;;;;19.56;100.00;99743.06;5296577;28;20341;-76
2023/09/21 09:04:57;;;;;;;;;;;;;;;19.50;100.00;99741.25;5293174;28;19967;-74
2023/09/21 09:07:30;;;;;;;;;;;;;;;19.48;100.00;99731.91;5291470;28;19928;-74
2023/09/21 09:10:02;;;;;;;;;;;;;;;19.47;100.00;99715.13;5296459;28;19922;-74
2023/09/21 09:12:33;;;;;;;;;;;;;;;19.54;100.00;99738.97;5294293;28;19920;-75
2023/09/21 09:15:05;;;;;;;;;;;;;;;19.57;100.00;99742.03;5297294;28;19923;-74
2023/09/21 09:17:36;;;;;;;;;;;;;;;19.57;100.00;99736.72;5272806;28;19997;-74
2023/09/21 09:20:08;;;;;;;;;;;;;;;19.55;100.00;99740.63;5296648;28;20382;-74
2023/09/21 09:22:39;;;;;;;;;;;;;;;19.54;100.00;99739.78;5296046;28;19920;-74
2023/09/21 09:25:10;;;;;;;;;;;;;;;19.51;100.00;99726.97;5273940;28;19920;-76
2023/09/21 09:27:42;;;;;;;;;;;;;;;19.51;100.00;99710.19;5295447;28;20008;-74
2023/09/21 09:30:13;;;;;;;;;;;;;;;19.55;100.00;99730.00;5298298;28;20369;-74
2023/09/21 09:32:47;;;;;;;;;;;;;;;19.54;100.00;99720.38;5281919;28;20024;-75
2023/09/21 09:35:19;;;;;;;;;;;;;;;19.59;100.00;99717.91;5298907;28;19971;-74
2023/09/21 09:37:51;;;;;;;;;;;;;;;19.61;100.00;99710.53;5299752;28;19923;-75
2023/09/21 09:40:24;;;;;;;;;;;;;;;19.64;100.00;99710.94;5299390;28;20380;-74
2023/09/21 09:42:56;;;;;;;;;;;;;;;19.65;100.00;99704.59;5300906;28;19911;-76
2023/09/21 09:45:30;;;;;;;;;;;;;;;19.66;100.00;99706.22;5299931;28;19946;-74
2023/09/21 09:48:02;;;;;;;;;;;;;;;19.63;100.00;99692.56;5279401;28;19920;-77
2023/09/21 09:50:36;;;;;;;;;;;;;;;19.72;100.00;99701.06;5300941;28;19920;-74
2023/09/21 09:53:10;;;;;;;;;;;;;;;19.75;100.00;99711.25;5300648;28;20292;-75
2023/09/21 09:55:42;;;;;;;;;;;;;;;19.80;100.00;99708.75;5299449;28;19981;-75
2023/09/21 09:58:15;;;;;;;;;;;;;;;19.82;100.00;99706.72;5281356;28;19978;-75
2023/09/21 10:00:47;;;;;;;;;;;;;;;19.86;100.00;99698.06;5297999;28;19972;-74
2023/09/21 10:03:18;;;;;;;;;;;;;;;19.88;100.00;99700.50;5295177;28;19916;-75
2023/09/21 10:05:50;;;;;;;;;;;;;;;19.91;100.00;99694.75;5296551;28;19981;-75
2023/09/21 10:08:25;;;;;;;;;;;;;;;19.97;100.00;99695.75;5297954;28;19946;-78
2023/09/21 10:10:57;;;;;;;;;;;;;;;20.00;100.00;99681.97;5299403;28;19916;-78
2023/09/21 10:13:30;;;;;;;;;;;;;;;20.05;100.00;99685.63;5298960;28;19916;-74
2023/09/21 10:16:05;;;;;;;;;;;;;;;20.09;100.00;99678.03;5277005;28;19916;-76
2023/09/21 10:18:37;;;;;;;;;;;;;;;20.15;100.00;99687.75;5296257;28;19916;-76
2023/09/21 10:21:24;;;;;;;;;;;;;;;20.17;100.00;99681.19;5296586;28;20016;-75
2023/09/21 10:24:04;;;;;;;;;;;;;;;20.23;100.00;99684.81;5298828;28;19916;-76
2023/09/21 10:26:38;;;;;;;;;;;;;;;20.29;100.00;99677.78;5299541;28;20343;-74
2023/09/21 10:29:12;;;;;;;;;;;;;;;20.34;100.00;99681.44;5298614;28;20427;-75
2023/09/21 10:31:44;;;;;;;;;;;;;;;20.38;100.00;99681.78;5296451;28;19977;-75
2023/09/21 10:34:22;;;;;;;;;;;;;;;20.45;100.00;99676.38;5299268;28;20299;-78
2023/09/21 10:37:10;;;;;;;;;;;;;;;20.48;100.00;99668.75;5297393;28;19924;-74
2023/09/21 10:39:43;;;;;;;;;;;;;;;20.52;100.00;99669.16;5299368;28;19916;-75
2023/09/21 10:42:15;;;;;;;;;;;;;;;20.54;100.00;99661.78;5298524;28;19923;-77
2023/09/21 10:44:52;;;;;;;;;;;;;;;20.60;100.00;99655.53;5297483;28;20280;-74
2023/09/21 10:47:44;;;;;;;;;;;;;;;20.63;100.00;99658.56;5297525;28;19935;-75
2023/09/21 10:50:17;;;;;;;;;;;;;;;20.69;100.00;99654.22;5298807;28;19957;-74
2023/09/21 10:52:51;;;;;;;;;;;;;;;20.74;100.00;99650.88;5296881;28;19920;-74
2023/09/21 10:55:22;;;;;;;;;;;;;;;20.77;100.00;99650.41;5296737;28;19927;-75
2023/09/21 10:57:55;;;;;;;;;;;;;;;20.81;100.00;99646.28;5294003;28;19916;-74
2023/09/21 11:00:27;;;;;;;;;;;;;;;20.83;100.00;99639.66;5295328;28;20318;-77
2023/09/21 11:02:59;;;;;;;;;;;;;;;20.85;100.00;99631.47;5295613;28;19924;-74
2023/09/21 11:05:30;;;;;;;;;;;;;;;20.86;100.00;99617.09;5297541;28;19924;-78
2023/09/21 11:08:02;;;;;;;;;;;;;;;20.94;100.00;99626.63;5295185;28;19920;-76
2023/09/21 11:10:33;;;;;;;;;;;;;;;20.94;100.00;99619.44;5297633;28;19920;-76
2023/09/21 11:13:05;;;;;;;;;;;;;;;20.98;100.00;99625.94;5297263;28;19942;-74
2023/09/21 11:15:36;;;;;;;;;;;;;;;21.02;100.00;99619.09;5297713;28;20065;-78
2023/09/21 11:18:09;;;;;;;;;;;;;;;21.04;100.00;99618.91;5298087;28;19958;-74
2023/09/21 11:20:41;;;;;;;;;;;;;;;21.04;100.00;99614.38;5297295;28;19916;-76
2023/09/21 11:23:12;;;;;;;;;;;;;;;21.03;100.00;99611.97;5296312;28;19916;-74
2023/09/21 11:25:43;;;;;;;;;;;;;;;21.02;100.00;99607.66;5296271;28;20022;-75
2023/09/21 11:28:16;;;;;;;;;;;;;;;21.02;100.00;99636.94;5295416;28;19956;-75
2023/09/21 11:30:50;;;;;;;;;;;;;;;20.93;100.00;99660.44;5297150;28;19955;-75
2023/09/21 11:33:22;;;;;;;;;;;;;;;20.80;100.00;99648.13;5295384;28;19942;-74
2023/09/21 11:35:54;;;;;;;;;;;;;;;20.72;100.00;99653.78;5292858;28;19915;-75
2023/09/21 11:38:25;;;;;;;;;;;;;;;20.61;100.00;99673.16;5296258;28;20301;-77
2023/09/21 11:40:57;;;;;;;;;;;;;;;20.47;100.00;99682.31;5272008;28;19931;-74
2023/09/21 11:43:29;;;;;;;;;;;;;;;20.25;100.00;99676.63;5294573;28;20365;-76
2023/09/21 11:46:05;;;;;;;;;;;;;;;20.07;100.00;99678.22;5291800;28;19966;-76
2023/09/21 11:48:38;;;;;;;;;;;;;;;19.97;100.00;99674.47;5293694;28;19996;-77
2023/09/21 11:51:11;;;;;;;;;;;;;;;19.84;100.00;99678.06;5296956;28;19916;-75
2023/09/21 11:53:44;;;;;;;;;;;;;;;19.78;100.00;99684.25;5295641;28;20314;-74
2023/09/21 11:56:17;;;;;;;;;;;;;;;19.74;100.00;99675.91;5294054;28;20436;-75
2023/09/21 11:58:48;;;;;;;;;;;;;;;19.73;100.00;99684.09;5294377;28;20330;-76
2023/09/21 12:01:22;;;;;;;;;;;;;;;19.67;100.00;99691.09;5292506;28;20011;-74
2023/09/21 12:03:54;;;;;;;;;;;;;;;19.62;100.00;99694.41;5294260;28;19916;-76
2023/09/21 12:06:27;;;;;;;;;;;;;;;19.58;100.00;99687.84;5297720;28;19930;-74
2023/09/21 12:08:58;;;;;;;;;;;;;;;19.59;100.00;99675.41;5293430;28;20277;-74
2023/09/21 12:11:29;;;;;;;;;;;;;;;19.62;100.00;99659.88;5294773;28;19923;-78
2023/09/21 12:14:04;;;;;;;;;;;;;;;19.61;100.00;99655.53;5296706;28;19977;-75
2023/09/21 12:16:35;;;;;;;;;;;;;;;19.66;100.00;99658.41;5296332;28;19957;-74
2023/09/21 12:19:08;;;;;;;;;;;;;;;19.70;100.00;99634.88;5296789;28;19915;-74
2023/09/21 12:21:40;;;;;;;;;;;;;;;19.68;100.00;99637.72;5295134;28;19963;-75
2023/09/21 12:24:11;;;;;;;;;;;;;;;19.73;100.00;99634.41;5292813;28;20009;-75
2023/09/21 12:26:42;;;;;;;;;;;;;;;19.69;100.00;99646.50;5292685;28;19951;-74
2023/09/21 12:29:17;;;;;;;;;;;;;;;19.68;100.00;99636.91;5296049;28;20296;-76
2023/09/21 12:31:50;;;;;;;;;;;;;;;19.72;100.00;99645.25;5292389;28;19932;-78
2023/09/21 12:34:21;;;;;;;;;;;;;;;19.67;100.00;99638.75;5293243;28;20053;-74
2023/09/21 12:36:52;;;;;;;;;;;;;;;19.72;100.00;99658.56;5293936;28;20022;-74
2023/09/21 12:39:27;;;;;;;;;;;;;;;19.77;100.00;99653.38;5294099;28;20368;-74
2023/09/21 12:41:59;;;;;;;;;;;;;;;19.78;100.00;99647.06;5293383;28;19932;-75
2023/09/21 12:44:30;;;;;;;;;;;;;;;19.80;100.00;99659.06;5291022;28;19927;-77
2023/09/21 12:47:01;;;;;;;;;;;;;;;19.80;100.00;99659.06;5278541;28;19920;-74
2023/09/21 12:49:32;;;;;;;;;;;;;;;19.81;100.00;99646.59;5292597;28;19931;-76
2023/09/21 12:52:03;;;;;;;;;;;;;;;19.84;100.00;99659.44;5294109;28;19912;-75
2023/09/21 12:54:35;;;;;;;;;;;;;;;19.86;100.00;99658.22;5295163;28;19924;-75
2023/09/21 12:57:07;;;;;;;;;;;;;;;19.85;100.00;99651.28;5292011;28;19916;-75
2023/09/21 12:59:39;;;;;;;;;;;;;;;19.85;100.00;99647.78;5292217;28;19959;-75
2023/09/21 13:02:12;;;;;;;;;;;;;;;19.87;100.00;99649.19;5291133;28;20046;-76
2023/09/21 13:04:45;;;;;;;;;;;;;;;19.88;100.00;99642.03;5295526;28;19928;-76
2023/09/21 13:07:16;;;;;;;;;;;;;;;19.91;100.00;99638.94;5300277;28;20022;-74